עמוד ראשי
תמונות לווין תחזית 15-יוםאקליםתחזית ים סופות טרופיות ברק שדות תעופהשאלות נפוצות עלון אודות
מזג אוויר : אירופה אפריקה אמריקה הצפונית אמריקה הדרומית אסיה אוסטרליה-אוקיאניה אחר
שפות איש קשר

סלוניקי, יוון

קו רוחב: 40-31N, קו אורך: 022-58E, גובה: 8 m


METAR: LGTS 010320Z 11004KT CAVOK 11/09 Q1023 NOSIG
TAF: LGTS 302300Z 0100/0124 VRB03KT 9999 FEW030

זמן: 06:59 (03:59 UTC)

תצפית מזג אוויר נוכחית

הדו"ח נערך לפני 39 דקות, בשעה 03:20 UTC  
רוח 04 קשר מכיוון מזרח/דרום-מזרח
טמפרטורת 11°C
לחות 87%
לחץ 1023 hPa
ראות 10 km או יותר
ללא עננים שבסיסם נמוך מ 1500 רגל או קומולונימבוס

שינוי יחידות

תחזית

הדו"ח נערך לפני 04 שעות ו 59 דקות, בשעה 23:00 UTC  
תחזית בתוקף מ 01 ב 00 UTC עד 01 ב 24 UTC
רוח 03 קשר רוח עם כיוונים משתנים
ראות 10 km או יותר
מעט עננים בגובה 3000 ft
המידע באתר זה מותנה של תניית פטור
מזג אוויר : אירופה אפריקה אמריקה הצפונית אמריקה הדרומית אסיה אוסטרליה-אוקיאניה אחר
תמונות לווין תחזית 15-יוםאקליםתחזית ים סופות טרופיות ברק שדות תעופהשאלות נפוצות שפות איש קשר עלון אודות